createdAt,value
2022-09-21T00:01:29.010Z,12.49
2022-09-21T00:04:00.866Z,12.51
2022-09-21T00:06:29.394Z,12.46
2022-09-21T00:08:59.239Z,12.27
2022-09-21T00:11:29.934Z,12.33
2022-09-21T00:14:00.927Z,12.28
2022-09-21T00:16:28.741Z,12.20
2022-09-21T00:18:55.701Z,12.11
2022-09-21T00:21:22.420Z,12.07
2022-09-21T00:23:49.354Z,12.00
2022-09-21T00:26:20.751Z,11.91
2022-09-21T00:28:54.629Z,11.75
2022-09-21T00:31:22.266Z,11.84
2022-09-21T00:33:49.621Z,11.71
2022-09-21T00:36:18.122Z,11.71
2022-09-21T00:38:49.129Z,11.73
2022-09-21T00:41:16.061Z,11.68
2022-09-21T00:43:48.412Z,11.69
2022-09-21T00:46:30.160Z,11.74
2022-09-21T00:48:58.503Z,11.74
2022-09-21T00:51:26.205Z,11.63
2022-09-21T00:53:59.265Z,11.71
2022-09-21T00:56:26.451Z,11.71
2022-09-21T00:58:55.108Z,11.69
2022-09-21T01:01:24.994Z,11.67
2022-09-21T01:03:57.430Z,11.63
2022-09-21T01:06:28.004Z,11.60
2022-09-21T01:08:59.119Z,11.52
2022-09-21T01:11:59.383Z,11.49
2022-09-21T01:14:47.503Z,11.45
2022-09-21T01:17:36.375Z,11.39
2022-09-21T01:20:29.556Z,11.33
2022-09-21T01:23:16.076Z,11.30
2022-09-21T01:25:52.289Z,11.22
2022-09-21T01:28:48.722Z,11.11
2022-09-21T01:31:24.328Z,11.20
2022-09-21T01:33:58.075Z,11.20
2022-09-21T01:36:33.363Z,11.11
2022-09-21T01:39:09.837Z,11.15
2022-09-21T01:41:39.384Z,11.12
2022-09-21T01:44:29.189Z,11.08
2022-09-21T01:47:01.655Z,11.04
2022-09-21T01:49:36.621Z,11.04
2022-09-21T01:52:14.853Z,11.01
2022-09-21T01:54:47.506Z,10.94
2022-09-21T01:57:23.460Z,10.95
2022-09-21T01:59:56.117Z,10.89
2022-09-21T02:02:38.181Z,10.86
2022-09-21T02:05:06.523Z,10.83
2022-09-21T02:07:37.637Z,10.79
2022-09-21T02:10:07.527Z,10.76
2022-09-21T02:12:34.373Z,10.73
2022-09-21T02:15:02.817Z,10.71
2022-09-21T02:18:04.905Z,10.69
2022-09-21T02:20:44.578Z,10.59
2022-09-21T02:23:43.711Z,10.51
2022-09-21T02:26:20.293Z,10.56
2022-09-21T02:29:00.308Z,10.52
2022-09-21T02:31:52.378Z,10.44
2022-09-21T02:34:32.199Z,10.37
2022-09-21T02:37:26.800Z,10.34
2022-09-21T02:40:03.514Z,10.29
2022-09-21T02:42:34.649Z,10.31
2022-09-21T02:45:19.100Z,10.27
2022-09-21T02:47:54.908Z,10.27
2022-09-21T02:50:26.493Z,10.22
2022-09-21T02:52:54.914Z,10.17
2022-09-21T02:55:25.618Z,10.16
2022-09-21T02:57:54.158Z,10.13
2022-09-21T03:00:23.665Z,10.09
2022-09-21T03:02:54.825Z,10.06
2022-09-21T03:05:21.507Z,10.06
2022-09-21T03:07:48.592Z,10.01
2022-09-21T03:10:15.103Z,9.97
2022-09-21T03:12:44.750Z,9.97
2022-09-21T03:15:11.320Z,9.93
2022-09-21T03:17:37.936Z,9.91
2022-09-21T03:20:07.980Z,9.83
2022-09-21T03:22:39.089Z,9.85
2022-09-21T03:25:06.248Z,9.75
2022-09-21T03:27:33.381Z,9.76
2022-09-21T03:30:02.204Z,9.71
2022-09-21T03:32:31.698Z,9.64
2022-09-21T03:34:58.203Z,9.68
2022-09-21T03:37:27.185Z,9.66
2022-09-21T03:39:53.681Z,9.62
2022-09-21T03:42:20.167Z,9.64
2022-09-21T03:44:48.940Z,9.62
2022-09-21T03:47:15.473Z,9.56
2022-09-21T03:49:44.203Z,9.54
2022-09-21T03:52:10.712Z,9.49
2022-09-21T03:54:37.277Z,9.48
2022-09-21T03:57:03.949Z,9.38
2022-09-21T03:59:30.482Z,9.44
2022-09-21T04:01:57.136Z,9.38
2022-09-21T04:04:23.705Z,9.32
2022-09-21T04:06:52.692Z,9.30
2022-09-21T04:09:19.574Z,9.27
2022-09-21T04:11:46.426Z,9.31
2022-09-21T04:14:12.997Z,9.27
2022-09-21T04:16:39.607Z,9.31
2022-09-21T04:19:08.668Z,9.14
2022-09-21T04:21:35.327Z,9.27
2022-09-21T04:24:02.060Z,9.25
2022-09-21T04:26:31.775Z,9.27
2022-09-21T04:29:01.195Z,9.24
2022-09-21T04:31:29.472Z,9.23
2022-09-21T04:34:01.888Z,9.26
2022-09-21T04:36:30.241Z,9.23
2022-09-21T04:39:02.785Z,9.21
2022-09-21T04:41:29.369Z,9.18
2022-09-21T04:43:55.854Z,9.15
2022-09-21T04:46:25.103Z,9.09
2022-09-21T04:48:54.176Z,9.14
2022-09-21T04:51:20.675Z,9.11
2022-09-21T04:53:47.178Z,9.13
2022-09-21T04:56:15.404Z,9.08
2022-09-21T04:58:41.916Z,9.04
2022-09-21T05:01:08.891Z,9.08
2022-09-21T05:03:38.733Z,9.05
2022-09-21T05:06:05.597Z,8.90
2022-09-21T05:08:50.950Z,9.00
2022-09-21T05:11:19.761Z,8.98
2022-09-21T05:13:46.936Z,8.94
2022-09-21T05:16:19.431Z,8.96
2022-09-21T05:18:56.448Z,8.96
2022-09-21T05:21:23.177Z,8.91
2022-09-21T05:23:52.069Z,8.93
2022-09-21T05:26:21.941Z,8.96
2022-09-21T05:28:51.480Z,8.91
2022-09-21T05:31:18.724Z,8.96
2022-09-21T05:33:54.862Z,8.96
2022-09-21T05:36:41.086Z,8.95
2022-09-21T05:39:08.104Z,8.96
2022-09-21T05:41:35.189Z,8.94
2022-09-21T05:44:02.002Z,8.90
2022-09-21T05:46:55.908Z,8.95
2022-09-21T05:49:34.988Z,8.94
2022-09-21T05:52:28.412Z,9.00
2022-09-21T05:55:30.002Z,9.02
2022-09-21T05:58:19.512Z,9.05
2022-09-21T06:00:54.721Z,9.09
2022-09-21T06:03:29.243Z,9.10
2022-09-21T06:05:57.400Z,9.17
2022-09-21T06:08:24.706Z,9.22
2022-09-21T06:10:52.130Z,9.24
2022-09-21T06:13:21.152Z,9.26
2022-09-21T06:15:47.777Z,9.37
2022-09-21T06:18:17.754Z,9.43
2022-09-21T06:20:45.029Z,9.46
2022-09-21T06:23:13.774Z,9.47
2022-09-21T06:25:42.736Z,9.58
2022-09-21T06:28:12.244Z,9.66
2022-09-21T06:30:42.905Z,9.68
2022-09-21T06:33:09.690Z,9.73
2022-09-21T06:35:40.413Z,9.74
2022-09-21T06:38:08.252Z,9.81
2022-09-21T06:40:38.458Z,9.85
2022-09-21T06:43:05.485Z,9.86
2022-09-21T06:45:32.197Z,9.96
2022-09-21T06:48:00.939Z,9.99
2022-09-21T06:50:27.543Z,10.04
2022-09-21T06:52:54.191Z,10.06
2022-09-21T06:55:20.759Z,10.09
2022-09-21T06:57:47.315Z,10.21
2022-09-21T07:00:14.663Z,10.24
2022-09-21T07:02:45.475Z,10.37
2022-09-21T07:05:13.006Z,10.45
2022-09-21T07:07:40.437Z,10.52
2022-09-21T07:10:14.571Z,10.48
2022-09-21T07:12:44.925Z,10.68
2022-09-21T07:15:11.926Z,10.75
2022-09-21T07:17:39.785Z,10.85
2022-09-21T07:20:08.295Z,10.92
2022-09-21T07:22:38.018Z,10.95
2022-09-21T07:25:05.782Z,11.10
2022-09-21T07:27:35.352Z,11.19
2022-09-21T07:30:01.826Z,11.20
2022-09-21T07:32:28.436Z,11.34
2022-09-21T07:34:57.953Z,11.44
2022-09-21T07:37:25.809Z,11.51
2022-09-21T07:39:53.144Z,11.61
2022-09-21T07:42:24.169Z,11.66
2022-09-21T07:45:03.136Z,11.75
2022-09-21T07:47:31.493Z,11.84
2022-09-21T07:49:58.125Z,11.89
2022-09-21T07:52:24.786Z,11.99
2022-09-21T07:54:51.281Z,12.03
2022-09-21T07:57:36.450Z,12.23
2022-09-21T08:00:04.591Z,14.13
2022-09-21T08:02:31.204Z,17.86
2022-09-21T08:04:57.782Z,20.18
2022-09-21T08:07:29.421Z,20.73
2022-09-21T08:09:58.594Z,21.70
2022-09-21T08:12:25.134Z,21.92
2022-09-21T08:14:52.013Z,23.15
2022-09-21T08:17:18.594Z,23.62
2022-09-21T08:19:45.079Z,23.85
2022-09-21T08:22:12.270Z,23.80
2022-09-21T08:24:40.424Z,23.63
2022-09-21T08:27:08.371Z,23.46
2022-09-21T08:29:36.402Z,23.94
2022-09-21T08:32:03.916Z,24.66
2022-09-21T08:34:35.456Z,24.66
2022-09-21T08:37:01.985Z,24.49
2022-09-21T08:39:28.643Z,24.25
2022-09-21T08:42:12.035Z,24.36
2022-09-21T08:44:48.441Z,24.78
2022-09-21T08:47:37.737Z,24.82
2022-09-21T08:50:13.949Z,23.77
2022-09-21T08:52:40.848Z,23.38
2022-09-21T08:55:17.979Z,23.63
2022-09-21T08:57:46.775Z,23.30
2022-09-21T09:00:16.343Z,22.70
2022-09-21T09:03:13.489Z,22.39
2022-09-21T09:05:42.736Z,22.73
2022-09-21T09:08:36.390Z,21.83
2022-09-21T09:11:21.622Z,21.41
2022-09-21T09:14:03.735Z,21.32
2022-09-21T09:16:42.425Z,21.54
2022-09-21T09:19:24.247Z,21.67
2022-09-21T09:21:51.281Z,21.66
2022-09-21T09:24:38.000Z,21.50
2022-09-21T09:27:16.792Z,21.64
2022-09-21T09:30:05.207Z,21.36
2022-09-21T09:33:02.563Z,21.30
2022-09-21T09:35:38.464Z,21.17
2022-09-21T09:38:26.658Z,20.44
2022-09-21T09:41:14.590Z,20.21
2022-09-21T09:44:01.733Z,20.02
2022-09-21T09:46:52.677Z,19.97
2022-09-21T09:49:37.978Z,20.05
2022-09-21T09:52:06.177Z,20.11
2022-09-21T09:54:36.901Z,19.52
2022-09-21T09:57:04.834Z,19.25
2022-09-21T09:59:50.465Z,19.19
2022-09-21T10:02:24.803Z,19.20
2022-09-21T10:05:08.949Z,19.11
2022-09-21T10:07:39.028Z,19.01
2022-09-21T10:10:32.676Z,18.80
2022-09-21T10:13:06.979Z,18.63
2022-09-21T10:15:33.759Z,18.48
2022-09-21T10:18:12.095Z,18.50
2022-09-21T10:20:52.605Z,18.48
2022-09-21T10:23:19.314Z,18.46
2022-09-21T10:25:53.851Z,18.41
2022-09-21T10:28:23.409Z,18.52
2022-09-21T10:31:09.931Z,18.67
2022-09-21T10:33:53.556Z,18.46
2022-09-21T10:36:40.148Z,18.78
2022-09-21T10:39:23.219Z,18.99
2022-09-21T10:41:55.034Z,19.09
2022-09-21T10:44:25.947Z,18.96
2022-09-21T10:46:57.520Z,18.91
2022-09-21T10:49:27.615Z,18.99
2022-09-21T10:52:00.484Z,18.82
2022-09-21T10:54:33.413Z,18.60
2022-09-21T10:57:04.328Z,18.53
2022-09-21T10:59:37.258Z,18.74
2022-09-21T11:02:43.074Z,18.98
2022-09-21T11:05:21.108Z,19.08
2022-09-21T11:08:16.262Z,19.24
2022-09-21T11:11:16.171Z,19.17
2022-09-21T11:14:06.149Z,19.47
2022-09-21T11:16:42.955Z,19.78
2022-09-21T11:19:24.649Z,19.86
2022-09-21T11:22:32.871Z,20.26
2022-09-21T11:25:41.407Z,20.57
2022-09-21T11:28:19.515Z,20.73
2022-09-21T11:31:25.598Z,21.07
2022-09-21T11:34:13.305Z,21.16
2022-09-21T11:36:58.807Z,20.72
2022-09-21T11:39:50.573Z,20.64
2022-09-21T11:42:35.685Z,20.74
2022-09-21T11:45:07.344Z,20.58
2022-09-21T11:47:39.707Z,20.31
2022-09-21T11:50:32.394Z,20.48
2022-09-21T11:53:04.329Z,20.74
2022-09-21T11:55:45.965Z,20.56
2022-09-21T11:58:28.566Z,20.32
2022-09-21T12:01:31.385Z,20.90
2022-09-21T12:04:11.167Z,21.02
2022-09-21T12:06:49.093Z,21.17
2022-09-21T12:09:29.406Z,21.27
2022-09-21T12:11:59.891Z,21.50
2022-09-21T12:14:43.275Z,21.39
2022-09-21T12:17:23.374Z,21.23
2022-09-21T12:20:07.736Z,20.98
2022-09-21T12:22:39.075Z,21.05
2022-09-21T12:25:17.706Z,21.16
2022-09-21T12:28:16.922Z,21.30
2022-09-21T12:30:49.417Z,21.52
2022-09-21T12:33:24.115Z,22.04
2022-09-21T12:36:35.103Z,22.60
2022-09-21T12:39:27.888Z,22.91
2022-09-21T12:42:07.830Z,23.16
2022-09-21T12:44:51.934Z,23.03
2022-09-21T12:47:58.114Z,23.68
2022-09-21T12:50:32.159Z,23.15
2022-09-21T12:52:59.298Z,22.72
2022-09-21T12:55:50.121Z,22.37
2022-09-21T12:58:29.915Z,22.57
2022-09-21T13:01:06.012Z,22.67
2022-09-21T13:04:01.189Z,22.66
2022-09-21T13:06:59.753Z,22.12
2022-09-21T13:09:27.509Z,21.63
2022-09-21T13:12:04.301Z,21.48
2022-09-21T13:14:39.326Z,21.23
2022-09-21T13:17:06.240Z,21.12
2022-09-21T13:19:35.824Z,20.96
2022-09-21T13:22:16.049Z,20.73
2022-09-21T13:24:45.843Z,20.51
2022-09-21T13:27:16.091Z,20.42
2022-09-21T13:29:43.109Z,20.26
2022-09-21T13:32:13.906Z,20.18
2022-09-21T13:34:46.890Z,20.07
2022-09-21T13:37:19.419Z,20.02
2022-09-21T13:39:55.739Z,19.97
2022-09-21T13:42:34.792Z,19.98
2022-09-21T13:45:22.949Z,20.03
2022-09-21T13:47:52.802Z,20.04
2022-09-21T13:50:37.151Z,19.97
2022-09-21T13:53:09.305Z,19.84
2022-09-21T13:55:39.142Z,19.91
2022-09-21T13:58:35.008Z,20.04
2022-09-21T14:01:45.598Z,20.22
2022-09-21T14:04:27.157Z,20.30
2022-09-21T14:06:55.753Z,20.48
2022-09-21T14:09:33.534Z,20.72
2022-09-21T14:12:10.059Z,20.85
2022-09-21T14:14:43.373Z,21.10
2022-09-21T14:17:39.003Z,21.30
2022-09-21T14:20:30.248Z,21.30
2022-09-21T14:23:21.454Z,21.44
2022-09-21T14:25:49.326Z,21.45
2022-09-21T14:28:17.690Z,21.30
2022-09-21T14:30:53.392Z,21.13
2022-09-21T14:33:29.554Z,21.21
2022-09-21T14:35:57.533Z,21.25
2022-09-21T14:38:30.489Z,21.39
2022-09-21T14:41:07.417Z,21.51
2022-09-21T14:43:36.956Z,21.50
2022-09-21T14:46:03.395Z,21.50
2022-09-21T14:48:54.312Z,21.49
2022-09-21T14:51:25.511Z,21.51
2022-09-21T14:54:07.519Z,21.53
2022-09-21T14:57:09.375Z,21.66
2022-09-21T14:59:47.752Z,21.69
2022-09-21T15:02:23.950Z,21.63
2022-09-21T15:05:05.795Z,21.56
2022-09-21T15:08:31.673Z,21.27
2022-09-21T15:11:21.066Z,20.84
2022-09-21T15:14:08.698Z,20.48
2022-09-21T15:16:39.703Z,20.38
2022-09-21T15:19:23.105Z,20.15
2022-09-21T15:21:55.368Z,20.11
2022-09-21T15:24:34.142Z,20.06
2022-09-21T15:27:16.029Z,19.92
2022-09-21T15:29:49.160Z,19.93
2022-09-21T15:32:36.987Z,19.82
2022-09-21T15:35:16.202Z,19.75
2022-09-21T15:37:45.740Z,19.69
2022-09-21T15:40:21.833Z,19.33
2022-09-21T15:43:05.620Z,19.48
2022-09-21T15:45:58.599Z,19.42
2022-09-21T15:48:32.588Z,19.36
2022-09-21T15:51:24.703Z,19.38
2022-09-21T15:53:56.018Z,19.34
2022-09-21T15:56:26.027Z,19.26
2022-09-21T15:59:08.839Z,19.25
2022-09-21T16:01:59.504Z,19.08
2022-09-21T16:04:28.355Z,19.19
2022-09-21T16:07:04.536Z,19.12
2022-09-21T16:09:45.078Z,19.07
2022-09-21T16:12:26.980Z,19.03
2022-09-21T16:14:53.902Z,18.99
2022-09-21T16:17:21.995Z,18.88
2022-09-21T16:19:51.659Z,18.78
2022-09-21T16:22:29.639Z,18.70
2022-09-21T16:25:01.376Z,18.60
2022-09-21T16:27:31.947Z,18.51
2022-09-21T16:30:01.128Z,18.45
2022-09-21T16:32:31.573Z,18.35
2022-09-21T16:35:28.663Z,18.26
2022-09-21T16:37:59.001Z,18.11
2022-09-21T16:40:29.351Z,18.01
2022-09-21T16:42:56.705Z,17.86
2022-09-21T16:45:31.787Z,17.80
2022-09-21T16:47:59.509Z,17.73
2022-09-21T16:50:28.519Z,17.68
2022-09-21T16:52:55.025Z,17.60
2022-09-21T16:55:25.656Z,17.48
2022-09-21T16:57:54.865Z,17.46
2022-09-21T17:00:22.048Z,17.26
2022-09-21T17:02:51.409Z,17.31
2022-09-21T17:05:21.572Z,17.24
2022-09-21T17:07:52.114Z,17.08
2022-09-21T17:10:20.439Z,16.99
2022-09-21T17:12:47.185Z,16.93
2022-09-21T17:15:13.707Z,16.86
2022-09-21T17:17:40.174Z,16.73
2022-09-21T17:20:19.113Z,16.68
2022-09-21T17:22:45.835Z,16.56
2022-09-21T17:25:12.456Z,16.52
2022-09-21T17:27:39.043Z,16.44
2022-09-21T17:30:15.703Z,16.36
2022-09-21T17:32:50.076Z,16.28
2022-09-21T17:35:26.315Z,16.16
2022-09-21T17:37:52.803Z,16.13
2022-09-21T17:40:19.863Z,16.04
2022-09-21T17:42:49.088Z,15.96
2022-09-21T17:45:26.671Z,15.87
2022-09-21T17:47:53.774Z,15.64
2022-09-21T17:50:25.596Z,15.73
2022-09-21T17:53:11.336Z,15.66
2022-09-21T17:55:39.273Z,15.58
2022-09-21T17:58:36.199Z,15.44
2022-09-21T18:01:16.025Z,15.34
2022-09-21T18:03:44.491Z,15.26
2022-09-21T18:06:11.834Z,15.15
2022-09-21T18:08:39.759Z,15.12
2022-09-21T18:11:29.452Z,15.01
2022-09-21T18:14:25.050Z,14.98
2022-09-21T18:17:21.800Z,14.92
2022-09-21T18:20:12.695Z,14.86
2022-09-21T18:22:45.210Z,14.82
2022-09-21T18:25:23.713Z,14.75
2022-09-21T18:27:52.143Z,14.68
2022-09-21T18:30:18.701Z,14.67
2022-09-21T18:33:01.599Z,14.61
2022-09-21T18:36:04.368Z,14.54
2022-09-21T18:38:43.211Z,14.49
2022-09-21T18:41:46.017Z,14.43
2022-09-21T18:44:21.568Z,14.34
2022-09-21T18:47:03.778Z,14.27
2022-09-21T18:49:35.641Z,14.22
2022-09-21T18:52:17.564Z,14.14
2022-09-21T18:54:44.196Z,14.12
2022-09-21T18:57:12.969Z,14.04
2022-09-21T18:59:42.886Z,14.05
2022-09-21T19:02:18.913Z,13.94
2022-09-21T19:04:46.414Z,13.92
2022-09-21T19:07:43.285Z,13.87
2022-09-21T19:10:32.748Z,13.79
2022-09-21T19:13:11.227Z,13.72
2022-09-21T19:16:00.778Z,13.67
2022-09-21T19:18:38.249Z,13.52
2022-09-21T19:21:29.187Z,13.55
2022-09-21T19:24:07.889Z,13.49
2022-09-21T19:26:34.651Z,13.44
2022-09-21T19:29:35.234Z,13.35
2022-09-21T19:32:05.465Z,13.30
2022-09-21T19:34:32.205Z,13.26
2022-09-21T19:37:00.917Z,13.22
2022-09-21T19:39:29.204Z,13.15
2022-09-21T19:42:06.433Z,13.09
2022-09-21T19:45:08.090Z,13.04
2022-09-21T19:47:48.433Z,12.96
2022-09-21T19:50:46.777Z,12.88
2022-09-21T19:53:33.460Z,12.77
2022-09-21T19:56:26.863Z,12.69
2022-09-21T19:59:12.395Z,12.61
2022-09-21T20:01:44.134Z,12.57
2022-09-21T20:04:15.508Z,12.49
2022-09-21T20:06:58.007Z,12.36
2022-09-21T20:09:29.783Z,12.41
2022-09-21T20:12:07.813Z,12.32
2022-09-21T20:14:43.388Z,12.33
2022-09-21T20:17:16.966Z,12.31
2022-09-21T20:20:05.517Z,12.22
2022-09-21T20:22:36.086Z,12.19
2022-09-21T20:25:09.142Z,12.20
2022-09-21T20:27:46.216Z,12.15
2022-09-21T20:30:19.017Z,12.10
2022-09-21T20:32:50.294Z,12.03
2022-09-21T20:35:24.484Z,12.02
2022-09-21T20:37:56.491Z,12.01
2022-09-21T20:40:26.316Z,11.97
2022-09-21T20:42:53.981Z,11.93
2022-09-21T20:45:20.579Z,11.88
2022-09-21T20:47:51.575Z,11.89
2022-09-21T20:50:21.162Z,11.85
2022-09-21T20:52:50.389Z,11.81
2022-09-21T20:55:20.178Z,11.79
2022-09-21T20:57:46.731Z,11.74
2022-09-21T21:00:15.457Z,11.73
2022-09-21T21:02:42.504Z,11.68
2022-09-21T21:05:11.300Z,11.59
2022-09-21T21:07:40.057Z,11.60
2022-09-21T21:10:07.125Z,11.52
2022-09-21T21:12:33.779Z,11.47
2022-09-21T21:15:02.358Z,11.45
2022-09-21T21:17:28.873Z,11.39
2022-09-21T21:19:55.646Z,11.42
2022-09-21T21:22:22.174Z,11.36
2022-09-21T21:24:51.904Z,11.36
2022-09-21T21:27:23.069Z,11.31
2022-09-21T21:29:51.537Z,11.24
2022-09-21T21:32:23.803Z,11.27
2022-09-21T21:34:53.613Z,11.25
2022-09-21T21:37:22.884Z,11.22
2022-09-21T21:39:49.374Z,11.16
2022-09-21T21:42:16.291Z,11.14
2022-09-21T21:44:43.250Z,11.05
2022-09-21T21:47:37.748Z,11.01
2022-09-21T21:49:59.824Z,10.99
2022-09-21T21:52:26.587Z,10.96
2022-09-21T21:54:55.298Z,10.89
2022-09-21T21:57:21.817Z,10.89
2022-09-21T21:59:48.500Z,10.83
2022-09-21T22:02:15.471Z,10.70
2022-09-21T22:04:42.218Z,10.78
2022-09-21T22:07:08.804Z,10.74
2022-09-21T22:09:35.332Z,10.68
2022-09-21T22:12:03.519Z,10.70
2022-09-21T22:14:30.372Z,10.66
2022-09-21T22:16:59.225Z,10.55
2022-09-21T22:19:26.168Z,10.57
2022-09-21T22:21:54.391Z,10.52
2022-09-21T22:24:21.488Z,10.47
2022-09-21T22:26:50.576Z,10.45
2022-09-21T22:29:20.187Z,10.39
2022-09-21T22:31:49.023Z,10.33
2022-09-21T22:34:16.686Z,10.25
2022-09-21T22:36:45.782Z,10.27
2022-09-21T22:39:16.417Z,10.19
2022-09-21T22:41:43.303Z,10.17
2022-09-21T22:44:10.636Z,10.15
2022-09-21T22:46:38.142Z,10.08
2022-09-21T22:49:05.226Z,10.12
2022-09-21T22:51:32.042Z,10.09
2022-09-21T22:54:01.987Z,10.06
2022-09-21T22:56:32.946Z,10.00
2022-09-21T22:59:01.069Z,9.98
2022-09-21T23:01:38.845Z,10.00
2022-09-21T23:04:11.014Z,9.96
2022-09-21T23:06:41.665Z,9.92
2022-09-21T23:09:12.785Z,9.91
2022-09-21T23:11:43.377Z,9.88
2022-09-21T23:14:11.677Z,9.81
2022-09-21T23:16:38.491Z,9.82
2022-09-21T23:19:05.348Z,9.80
2022-09-21T23:21:31.867Z,9.78
2022-09-21T23:24:01.846Z,9.77
2022-09-21T23:26:31.004Z,9.72
2022-09-21T23:29:09.161Z,9.69
2022-09-21T23:31:35.869Z,9.66
2022-09-21T23:34:08.077Z,9.63
2022-09-21T23:36:36.302Z,9.61
2022-09-21T23:39:06.125Z,9.60
2022-09-21T23:41:35.972Z,9.52
2022-09-21T23:44:06.513Z,9.54
2022-09-21T23:46:40.915Z,9.51
2022-09-21T23:49:08.129Z,9.49
2022-09-21T23:51:37.135Z,9.42
2022-09-21T23:54:04.589Z,9.40
2022-09-21T23:56:33.983Z,9.41
2022-09-21T23:59:00.932Z,9.39
